Terminal Aerodrome Forecast
Issued by NWS Spokane, WA

Home | Current Version | Previous Version | Text Only | Print | Product List | Glossary On
Versions: 1 2 3 4 5 6 7 8 9 10 11 12 13 14 15 16 17 18 19 20
000
FTUS46 KOTX 051125
TAFLWS
TAF
KLWS 051125Z 0512/0612 21007KT P6SM SCT250
     FM051400 11003KT P6SM FEW060 SCT150
     FM060400 12004KT 6SM -SN BKN050 OVC080=

USA.gov is the U.S. government's official web portal to all federal, state and local government web resources and services.